createdAt,value
2022-11-14T00:04:49.524Z,98581.44
2022-11-14T00:10:12.275Z,98584.59
2022-11-14T00:15:34.000Z,98581.06
2022-11-14T00:20:55.767Z,98579.28
2022-11-14T00:26:17.610Z,98588.31
2022-11-14T00:31:39.366Z,98588.09
2022-11-14T00:37:01.502Z,98588.44
2022-11-14T00:42:23.308Z,98577.13
2022-11-14T00:47:45.121Z,98577.50
2022-11-14T00:53:07.403Z,98561.81
2022-11-14T00:58:29.734Z,98566.22
2022-11-14T01:03:52.410Z,98561.94
2022-11-14T01:09:14.228Z,98555.22
2022-11-14T01:14:36.184Z,98550.09
2022-11-14T01:19:57.936Z,98560.66
2022-11-14T01:25:19.671Z,98554.59
2022-11-14T01:30:41.637Z,98540.81
2022-11-14T01:36:03.692Z,98538.91
2022-11-14T01:41:25.543Z,98533.72
2022-11-14T01:46:53.225Z,98535.41
2022-11-14T01:52:21.784Z,98536.53
2022-11-14T01:57:47.115Z,98522.47
2022-11-14T02:03:09.793Z,98518.41
2022-11-14T02:08:33.556Z,98519.44
2022-11-14T02:13:55.651Z,98512.53
2022-11-14T02:19:17.508Z,98518.41
2022-11-14T02:24:39.206Z,98517.63
2022-11-14T02:30:13.583Z,98509.94
2022-11-14T02:35:35.297Z,98518.47
2022-11-14T02:40:58.952Z,98520.69
2022-11-14T02:46:20.687Z,98512.69
2022-11-14T02:51:42.438Z,98512.06
2022-11-14T02:57:04.150Z,98512.81
2022-11-14T03:02:26.116Z,98526.66
2022-11-14T03:07:48.249Z,98517.34
2022-11-14T03:13:09.950Z,98520.81
2022-11-14T03:18:32.008Z,98499.38
2022-11-14T03:23:53.960Z,98494.22
2022-11-14T03:29:15.767Z,98487.03
2022-11-14T03:34:37.466Z,98479.09
2022-11-14T03:39:59.231Z,98464.19
2022-11-14T03:45:20.984Z,98453.34
2022-11-14T03:50:43.661Z,98443.56
2022-11-14T03:56:05.910Z,98468.50
2022-11-14T04:01:29.117Z,98493.19
2022-11-14T04:06:50.923Z,98486.66
2022-11-14T04:12:15.671Z,98477.66
2022-11-14T04:17:39.992Z,98487.38
2022-11-14T04:23:01.829Z,98484.22
2022-11-14T04:28:23.533Z,98481.06
2022-11-14T04:33:45.261Z,98462.34
2022-11-14T04:39:07.031Z,98458.06
2022-11-14T04:44:28.735Z,98439.13
2022-11-14T04:49:50.506Z,98438.97
2022-11-14T04:55:12.208Z,98448.91
2022-11-14T05:00:33.976Z,98444.41
2022-11-14T05:06:01.046Z,98420.97
2022-11-14T05:11:26.668Z,98415.38
2022-11-14T05:16:50.802Z,98409.53
2022-11-14T05:22:12.489Z,98418.78
2022-11-14T05:27:34.220Z,98416.53
2022-11-14T05:32:55.923Z,98411.31
2022-11-14T05:38:17.615Z,98415.41
2022-11-14T05:43:40.353Z,98401.84
2022-11-14T05:49:02.114Z,98400.16
2022-11-14T05:54:23.810Z,98415.84
2022-11-14T05:59:45.520Z,98410.66
2022-11-14T06:05:07.453Z,98417.63
2022-11-14T06:10:29.529Z,98414.00
2022-11-14T06:15:51.243Z,98420.22
2022-11-14T06:21:18.215Z,98422.56
2022-11-14T06:26:39.978Z,98412.06
2022-11-14T06:32:01.670Z,98422.25
2022-11-14T06:37:23.364Z,98424.75
2022-11-14T06:42:45.062Z,98430.78
2022-11-14T06:48:07.014Z,98420.53
2022-11-14T06:53:30.633Z,98428.41
2022-11-14T06:58:52.439Z,98423.16
2022-11-14T07:04:14.250Z,98408.00
2022-11-14T07:09:36.007Z,98408.78
2022-11-14T07:14:57.711Z,98409.69
2022-11-14T07:20:19.498Z,98410.09
2022-11-14T07:25:41.876Z,98413.16
2022-11-14T07:31:04.742Z,98417.75
2022-11-14T07:36:26.444Z,98414.63
2022-11-14T07:41:48.178Z,98417.28
2022-11-14T07:47:09.884Z,98430.56
2022-11-14T07:52:31.686Z,98436.09
2022-11-14T07:57:54.842Z,98439.03
2022-11-14T08:03:16.561Z,98440.28
2022-11-14T08:08:38.418Z,98461.69
2022-11-14T08:14:00.131Z,98455.03
2022-11-14T08:19:21.930Z,98474.03
2022-11-14T08:24:43.616Z,98469.09
2022-11-14T08:30:05.785Z,98486.09
2022-11-14T08:35:27.542Z,98480.75
2022-11-14T08:40:49.250Z,98491.19
2022-11-14T08:46:10.980Z,98487.84
2022-11-14T08:51:32.732Z,98477.56
2022-11-14T08:56:54.546Z,98477.69
2022-11-14T09:02:16.446Z,98460.16
2022-11-14T09:07:38.326Z,98468.81
2022-11-14T09:13:01.614Z,98471.19
2022-11-14T09:18:23.374Z,98473.72
2022-11-14T09:23:47.723Z,98450.28
2022-11-14T09:29:09.542Z,98460.38
2022-11-14T09:34:31.484Z,98454.81
2022-11-14T09:39:53.222Z,98454.63
2022-11-14T09:45:17.124Z,98454.38
2022-11-14T09:50:47.992Z,98436.84
2022-11-14T09:56:18.646Z,98442.88
2022-11-14T10:02:04.903Z,98433.22
2022-11-14T10:07:44.263Z,98424.16
2022-11-14T10:13:43.874Z,98425.50
2022-11-14T10:19:13.644Z,98418.16
2022-11-14T10:25:07.402Z,98421.88
2022-11-14T10:30:46.471Z,98424.84
2022-11-14T10:36:40.303Z,98440.63
2022-11-14T10:42:10.843Z,98439.72
2022-11-14T10:47:40.633Z,98434.78
2022-11-14T10:53:07.046Z,98431.66
2022-11-14T10:58:29.402Z,98430.69
2022-11-14T11:03:51.362Z,98432.41
2022-11-14T11:09:45.269Z,98418.78
2022-11-14T11:15:13.333Z,98419.81
2022-11-14T11:20:38.680Z,98397.66
2022-11-14T11:26:07.790Z,98395.38
2022-11-14T11:31:50.122Z,98399.00
2022-11-14T11:37:20.915Z,98393.84
2022-11-14T11:48:40.488Z,98395.84
2022-11-14T11:54:26.972Z,98387.00
2022-11-14T11:59:54.087Z,98384.19
2022-11-14T12:05:29.634Z,98385.03
2022-11-14T12:10:53.268Z,98382.53
2022-11-14T12:16:30.442Z,98374.91
2022-11-14T12:22:22.714Z,98372.69
2022-11-14T12:28:04.242Z,98372.53
2022-11-14T12:33:36.970Z,98372.16
2022-11-14T12:39:00.112Z,98366.31
2022-11-14T12:44:27.622Z,98360.25
2022-11-14T12:49:52.667Z,98355.31
2022-11-14T12:55:43.478Z,98352.94
2022-11-14T13:01:31.322Z,98354.81
2022-11-14T13:06:55.912Z,98335.28
2022-11-14T13:12:47.601Z,98341.84
2022-11-14T13:18:40.137Z,98342.22
2022-11-14T13:24:02.501Z,98336.22
2022-11-14T13:29:48.153Z,98343.91
2022-11-14T13:35:24.945Z,98333.25
2022-11-14T13:40:59.152Z,98336.16
2022-11-14T13:46:41.453Z,98334.47
2022-11-14T13:52:03.367Z,98325.88
2022-11-14T13:57:27.988Z,98328.09
2022-11-14T14:03:01.702Z,98326.38
2022-11-14T14:08:48.973Z,98325.00
2022-11-14T14:14:50.251Z,98326.56
2022-11-14T14:20:35.095Z,98333.13
2022-11-14T14:26:13.714Z,98320.78
2022-11-14T14:31:41.501Z,98322.31
2022-11-14T14:37:03.253Z,98323.38
2022-11-14T14:42:29.619Z,98323.56
2022-11-14T14:48:12.621Z,98326.56
2022-11-14T14:53:35.960Z,98334.13
2022-11-14T14:58:57.696Z,98333.47
2022-11-14T15:04:21.942Z,98337.72
2022-11-14T15:09:52.862Z,98347.34
2022-11-14T15:15:16.486Z,98346.31
2022-11-14T15:20:38.215Z,98353.91
2022-11-14T15:26:05.226Z,98338.94
2022-11-14T15:31:27.001Z,98353.63
2022-11-14T15:37:16.376Z,98355.72
2022-11-14T15:42:38.197Z,98355.72
2022-11-14T15:48:04.858Z,98357.19
2022-11-14T15:53:28.699Z,98355.53
2022-11-14T15:58:51.003Z,98361.34
2022-11-14T16:04:18.814Z,98357.56
2022-11-14T16:09:41.095Z,98365.13
2022-11-14T16:15:02.846Z,98367.16
2022-11-14T16:20:27.590Z,98367.56
2022-11-14T16:25:49.309Z,98382.06
2022-11-14T16:31:12.521Z,98381.91
2022-11-14T16:36:34.234Z,98380.59
2022-11-14T16:42:02.827Z,98384.41
2022-11-14T16:47:24.602Z,98391.00
2022-11-14T16:52:46.317Z,98395.66
2022-11-14T16:58:08.064Z,98405.38
2022-11-14T17:03:31.941Z,98404.81
2022-11-14T17:08:58.266Z,98412.44
2022-11-14T17:14:19.985Z,98417.69
2022-11-14T17:19:45.937Z,98419.47
2022-11-14T17:25:08.271Z,98409.56
2022-11-14T17:30:29.986Z,98413.22
2022-11-14T17:35:51.986Z,98420.28
2022-11-14T17:41:14.021Z,98417.88
2022-11-14T17:46:35.753Z,98426.81
2022-11-14T17:51:57.486Z,98420.22
2022-11-14T17:57:19.182Z,98416.22
2022-11-14T18:02:40.910Z,98415.53
2022-11-14T18:08:02.644Z,98411.00
2022-11-14T18:13:24.361Z,98400.75
2022-11-14T18:18:46.205Z,98400.81
2022-11-14T18:24:12.950Z,98405.78
2022-11-14T18:29:34.673Z,98400.91
2022-11-14T18:34:56.375Z,98396.22
2022-11-14T18:40:18.157Z,98387.47
2022-11-14T18:45:39.854Z,98384.47
2022-11-14T18:51:02.868Z,98382.34
2022-11-14T18:56:25.660Z,98380.28
2022-11-14T19:01:47.400Z,98379.34
2022-11-14T19:07:10.020Z,98388.94
2022-11-14T19:12:31.842Z,98390.34
2022-11-14T19:17:53.588Z,98389.69
2022-11-14T19:23:15.428Z,98391.38
2022-11-14T19:28:37.567Z,98401.22
2022-11-14T19:34:00.355Z,98401.22
2022-11-14T19:39:22.066Z,98410.94
2022-11-14T19:44:43.858Z,98415.50
2022-11-14T19:50:06.004Z,98408.97
2022-11-14T19:55:27.922Z,98411.00
2022-11-14T20:00:49.642Z,98414.22
2022-11-14T20:06:17.421Z,98417.50
2022-11-14T20:11:39.383Z,98431.41
2022-11-14T20:17:01.186Z,98422.25
2022-11-14T20:22:22.888Z,98423.66
2022-11-14T20:27:44.690Z,98425.25
2022-11-14T20:33:08.056Z,98428.81
2022-11-14T20:38:31.191Z,98426.78
2022-11-14T20:43:52.986Z,98432.00
2022-11-14T20:49:14.877Z,98429.50
2022-11-14T20:54:36.735Z,98429.31
2022-11-14T20:59:58.591Z,98416.81
2022-11-14T21:05:20.276Z,98424.91
2022-11-14T21:10:47.443Z,98423.41
2022-11-14T21:16:16.088Z,98418.44
2022-11-14T21:21:38.523Z,98417.59
2022-11-14T21:27:00.226Z,98417.03
2022-11-14T21:32:21.930Z,98418.81
2022-11-14T21:37:43.624Z,98409.97
2022-11-14T21:43:05.336Z,98413.09
2022-11-14T21:48:31.343Z,98408.25
2022-11-14T21:53:55.549Z,98400.66
2022-11-14T21:59:21.212Z,98406.25
2022-11-14T22:04:42.932Z,98410.53
2022-11-14T22:10:04.961Z,98408.03
2022-11-14T22:15:26.705Z,98414.16
2022-11-14T22:20:48.433Z,98417.44
2022-11-14T22:26:11.749Z,98407.16
2022-11-14T22:31:33.592Z,98416.94
2022-11-14T22:36:55.290Z,98408.78
2022-11-14T22:42:17.001Z,98415.84
2022-11-14T22:47:38.721Z,98430.75
2022-11-14T22:53:01.467Z,98421.66
2022-11-14T22:58:23.612Z,98409.38
2022-11-14T23:03:48.049Z,98424.44
2022-11-14T23:09:09.940Z,98414.84
2022-11-14T23:14:31.680Z,98414.41
2022-11-14T23:19:53.448Z,98418.28
2022-11-14T23:25:15.319Z,98408.41
2022-11-14T23:30:37.102Z,98407.16
2022-11-14T23:35:59.042Z,98399.19
2022-11-14T23:41:23.512Z,98393.22
2022-11-14T23:46:45.258Z,98388.50
2022-11-14T23:52:06.964Z,98386.53
2022-11-14T23:57:28.664Z,98374.56
